sensor_id;sensor_type;location;lat;lon;timestamp;pressure;altitude;pressure_sealevel;temperature;humidity
59391;BME280;53405;57.012;40.984;2023-01-25T00:02:38;101504.34;;;-1.37;74.54
59391;BME280;53405;57.012;40.984;2023-01-25T00:05:26;101494.59;;;-1.51;75.64
59391;BME280;53405;57.012;40.984;2023-01-25T00:08:13;101502.91;;;-1.44;76.02
59391;BME280;53405;57.012;40.984;2023-01-25T00:11:01;101504.91;;;-1.51;76.01
59391;BME280;53405;57.012;40.984;2023-01-25T00:13:52;101492.25;;;-0.95;72.81
59391;BME280;53405;57.012;40.984;2023-01-25T00:16:40;101493.84;;;-1.32;75.08
59391;BME280;53405;57.012;40.984;2023-01-25T00:19:28;101488.97;;;-1.40;74.45
59391;BME280;53405;57.012;40.984;2023-01-25T00:22:15;101493.22;;;-1.39;75.68
59391;BME280;53405;57.012;40.984;2023-01-25T00:25:03;101488.53;;;-1.50;74.73
59391;BME280;53405;57.012;40.984;2023-01-25T00:27:51;101478.47;;;-1.78;76.40
59391;BME280;53405;57.012;40.984;2023-01-25T00:30:39;101491.44;;;-1.16;74.64
59391;BME280;53405;57.012;40.984;2023-01-25T00:37:35;101493.97;;;-1.35;75.46
59391;BME280;53405;57.012;40.984;2023-01-25T00:40:23;101487.09;;;-1.16;75.11
59391;BME280;53405;57.012;40.984;2023-01-25T00:43:11;101474.09;;;-1.35;74.67
59391;BME280;53405;57.012;40.984;2023-01-25T00:46:00;101507.31;;;-1.25;75.60
59391;BME280;53405;57.012;40.984;2023-01-25T00:48:52;101499.44;;;-1.43;75.81
59391;BME280;53405;57.012;40.984;2023-01-25T00:51:44;101498.75;;;-1.47;75.55
59391;BME280;53405;57.012;40.984;2023-01-25T00:54:31;101490.88;;;-1.66;75.84
59391;BME280;53405;57.012;40.984;2023-01-25T00:57:19;101503.19;;;-1.30;75.75
59391;BME280;53405;57.012;40.984;2023-01-25T01:00:07;101506.13;;;-1.59;75.61
59391;BME280;53405;57.012;40.984;2023-01-25T01:02:55;101500.66;;;-1.52;76.10
59391;BME280;53405;57.012;40.984;2023-01-25T01:05:42;101476.97;;;-1.84;77.05
59391;BME280;53405;57.012;40.984;2023-01-25T01:08:32;101481.69;;;-1.73;75.66
59391;BME280;53405;57.012;40.984;2023-01-25T01:11:20;101478.03;;;-1.89;75.57
59391;BME280;53405;57.012;40.984;2023-01-25T01:14:08;101473.44;;;-2.03;76.31
59391;BME280;53405;57.012;40.984;2023-01-25T01:16:56;101469.28;;;-1.85;77.39
59391;BME280;53405;57.012;40.984;2023-01-25T01:19:44;101471.56;;;-1.77;76.53
59391;BME280;53405;57.012;40.984;2023-01-25T01:22:31;101466.28;;;-1.54;76.17
59391;BME280;53405;57.012;40.984;2023-01-25T01:25:19;101461.13;;;-1.33;75.70
59391;BME280;53405;57.012;40.984;2023-01-25T01:28:07;101472.19;;;-1.72;75.50
59391;BME280;53405;57.012;40.984;2023-01-25T01:31:05;101476.56;;;-1.95;77.40
59391;BME280;53405;57.012;40.984;2023-01-25T01:33:56;101463.94;;;-2.03;77.64
59391;BME280;53405;57.012;40.984;2023-01-25T01:36:44;101464.78;;;-1.39;75.01
59391;BME280;53405;57.012;40.984;2023-01-25T01:39:32;101459.19;;;-1.49;75.49
59391;BME280;53405;57.012;40.984;2023-01-25T01:42:19;101455.88;;;-1.52;75.97
59391;BME280;53405;57.012;40.984;2023-01-25T01:54:47;101452.13;;;-1.66;75.89
59391;BME280;53405;57.012;40.984;2023-01-25T01:57:46;101442.72;;;-1.67;76.05
59391;BME280;53405;57.012;40.984;2023-01-25T02:00:37;101421.78;;;-1.81;74.74
59391;BME280;53405;57.012;40.984;2023-01-25T02:03:26;101434.53;;;-1.98;75.32
59391;BME280;53405;57.012;40.984;2023-01-25T02:06:31;101434.78;;;-2.05;76.17
59391;BME280;53405;57.012;40.984;2023-01-25T02:09:23;101443.53;;;-2.09;75.90
59391;BME280;53405;57.012;40.984;2023-01-25T02:12:11;101438.13;;;-2.25;77.72
59391;BME280;53405;57.012;40.984;2023-01-25T02:15:00;101421.81;;;-2.03;78.67
59391;BME280;53405;57.012;40.984;2023-01-25T02:17:54;101420.41;;;-1.49;74.68
59391;BME280;53405;57.012;40.984;2023-01-25T02:20:43;101421.72;;;-1.79;75.97
59391;BME280;53405;57.012;40.984;2023-01-25T02:23:52;101413.59;;;-1.70;75.11
59391;BME280;53405;57.012;40.984;2023-01-25T02:26:41;101427.28;;;-1.68;75.64
59391;BME280;53405;57.012;40.984;2023-01-25T02:29:29;101433.72;;;-1.58;76.02
59391;BME280;53405;57.012;40.984;2023-01-25T02:32:17;101437.72;;;-1.51;75.03
59391;BME280;53405;57.012;40.984;2023-01-25T02:35:05;101436.91;;;-1.51;75.20
59391;BME280;53405;57.012;40.984;2023-01-25T02:37:53;101431.38;;;-1.64;75.26
59391;BME280;53405;57.012;40.984;2023-01-25T02:40:52;101425.44;;;-1.87;75.64
59391;BME280;53405;57.012;40.984;2023-01-25T02:43:42;101443.34;;;-1.82;76.10
59391;BME280;53405;57.012;40.984;2023-01-25T02:46:32;101447.53;;;-1.79;75.76
59391;BME280;53405;57.012;40.984;2023-01-25T02:49:22;101444.09;;;-1.80;75.71
59391;BME280;53405;57.012;40.984;2023-01-25T02:52:10;101433.19;;;-1.87;76.15
59391;BME280;53405;57.012;40.984;2023-01-25T02:54:58;101440.81;;;-1.84;76.84
59391;BME280;53405;57.012;40.984;2023-01-25T02:57:46;101435.53;;;-1.80;75.66
59391;BME280;53405;57.012;40.984;2023-01-25T03:00:34;101431.84;;;-1.75;75.81
59391;BME280;53405;57.012;40.984;2023-01-25T03:03:22;101428.53;;;-1.37;74.43
59391;BME280;53405;57.012;40.984;2023-01-25T03:06:12;101439.53;;;-1.73;75.64
59391;BME280;53405;57.012;40.984;2023-01-25T03:09:03;101452.47;;;-1.53;76.18
59391;BME280;53405;57.012;40.984;2023-01-25T03:11:52;101441.19;;;-1.93;76.53
59391;BME280;53405;57.012;40.984;2023-01-25T03:14:41;101442.94;;;-1.93;77.08
59391;BME280;53405;57.012;40.984;2023-01-25T03:17:30;101447.78;;;-1.86;76.02
59391;BME280;53405;57.012;40.984;2023-01-25T03:20:18;101459.28;;;-1.72;75.97
59391;BME280;53405;57.012;40.984;2023-01-25T03:23:06;101474.78;;;-1.72;74.97
59391;BME280;53405;57.012;40.984;2023-01-25T03:25:54;101464.50;;;-1.74;76.79
59391;BME280;53405;57.012;40.984;2023-01-25T03:28:50;101457.97;;;-2.03;76.60
59391;BME280;53405;57.012;40.984;2023-01-25T03:31:38;101467.72;;;-1.89;76.39
59391;BME280;53405;57.012;40.984;2023-01-25T03:34:26;101469.94;;;-1.80;76.95
59391;BME280;53405;57.012;40.984;2023-01-25T03:37:18;101458.59;;;-1.76;75.60
59391;BME280;53405;57.012;40.984;2023-01-25T03:40:08;101459.47;;;-1.77;76.18
59391;BME280;53405;57.012;40.984;2023-01-25T03:42:56;101466.78;;;-1.66;75.62
59391;BME280;53405;57.012;40.984;2023-01-25T03:45:44;101465.81;;;-2.06;76.45
59391;BME280;53405;57.012;40.984;2023-01-25T03:48:32;101464.72;;;-2.01;76.73
59391;BME280;53405;57.012;40.984;2023-01-25T03:51:19;101420.44;;;-2.12;76.56
59391;BME280;53405;57.012;40.984;2023-01-25T03:54:07;101462.88;;;-1.97;76.59
59391;BME280;53405;57.012;40.984;2023-01-25T03:56:56;101456.09;;;-2.00;77.30
59391;BME280;53405;57.012;40.984;2023-01-25T03:59:44;101456.72;;;-1.94;77.91
59391;BME280;53405;57.012;40.984;2023-01-25T04:02:32;101465.63;;;-2.02;76.42
59391;BME280;53405;57.012;40.984;2023-01-25T04:05:21;101467.47;;;-2.05;77.35
59391;BME280;53405;57.012;40.984;2023-01-25T04:08:08;101447.59;;;-1.81;76.53
59391;BME280;53405;57.012;40.984;2023-01-25T04:11:05;101447.97;;;-1.90;76.61
59391;BME280;53405;57.012;40.984;2023-01-25T04:13:53;101458.38;;;-1.92;76.30
59391;BME280;53405;57.012;40.984;2023-01-25T04:16:44;101457.78;;;-1.98;77.81
59391;BME280;53405;57.012;40.984;2023-01-25T04:19:52;101454.34;;;-2.21;78.79
59391;BME280;53405;57.012;40.984;2023-01-25T04:22:44;101455.25;;;-2.00;78.44
59391;BME280;53405;57.012;40.984;2023-01-25T04:25:34;101450.28;;;-2.05;77.78
59391;BME280;53405;57.012;40.984;2023-01-25T04:28:22;101439.38;;;-2.13;78.22
59391;BME280;53405;57.012;40.984;2023-01-25T04:31:11;101459.56;;;-2.01;78.32
59391;BME280;53405;57.012;40.984;2023-01-25T04:34:00;101451.34;;;-2.10;78.25
59391;BME280;53405;57.012;40.984;2023-01-25T04:36:48;101455.47;;;-1.84;78.01
59391;BME280;53405;57.012;40.984;2023-01-25T04:39:35;101450.44;;;-1.87;77.84
59391;BME280;53405;57.012;40.984;2023-01-25T04:42:23;101452.28;;;-2.13;78.58
59391;BME280;53405;57.012;40.984;2023-01-25T04:45:14;101457.28;;;-2.08;77.75
59391;BME280;53405;57.012;40.984;2023-01-25T04:48:03;101445.47;;;-2.36;78.88
59391;BME280;53405;57.012;40.984;2023-01-25T04:50:52;101428.88;;;-2.52;78.16
59391;BME280;53405;57.012;40.984;2023-01-25T04:53:41;101457.06;;;-2.48;78.63
59391;BME280;53405;57.012;40.984;2023-01-25T04:56:29;101453.19;;;-2.58;78.63
59391;BME280;53405;57.012;40.984;2023-01-25T04:59:18;101461.91;;;-2.39;78.75
59391;BME280;53405;57.012;40.984;2023-01-25T05:02:05;101469.63;;;-2.39;79.33
59391;BME280;53405;57.012;40.984;2023-01-25T05:04:56;101472.41;;;-2.21;79.29
59391;BME280;53405;57.012;40.984;2023-01-25T05:07:43;101463.88;;;-2.01;78.70
59391;BME280;53405;57.012;40.984;2023-01-25T05:10:31;101480.09;;;-1.97;79.36
59391;BME280;53405;57.012;40.984;2023-01-25T05:13:57;101493.00;;;-1.97;78.38
59391;BME280;53405;57.012;40.984;2023-01-25T05:16:51;101488.44;;;-2.13;78.22
59391;BME280;53405;57.012;40.984;2023-01-25T05:19:38;101478.84;;;-2.31;79.42
59391;BME280;53405;57.012;40.984;2023-01-25T05:22:28;101456.03;;;-2.42;80.05
59391;BME280;53405;57.012;40.984;2023-01-25T05:25:16;101471.56;;;-2.22;78.78
59391;BME280;53405;57.012;40.984;2023-01-25T05:28:23;101467.41;;;-2.26;79.05
59391;BME280;53405;57.012;40.984;2023-01-25T05:31:30;101471.22;;;-2.12;78.63
59391;BME280;53405;57.012;40.984;2023-01-25T05:34:17;101460.66;;;-2.06;78.85
59391;BME280;53405;57.012;40.984;2023-01-25T05:37:07;101456.78;;;-1.96;78.06
59391;BME280;53405;57.012;40.984;2023-01-25T05:39:59;101457.72;;;-1.97;77.72
59391;BME280;53405;57.012;40.984;2023-01-25T05:42:56;101460.25;;;-2.17;78.06
59391;BME280;53405;57.012;40.984;2023-01-25T05:45:51;101448.88;;;-2.36;78.28
59391;BME280;53405;57.012;40.984;2023-01-25T05:48:42;101451.94;;;-2.26;79.36
59391;BME280;53405;57.012;40.984;2023-01-25T05:51:31;101457.09;;;-2.26;78.59
59391;BME280;53405;57.012;40.984;2023-01-25T05:54:19;101443.00;;;-2.17;79.21
59391;BME280;53405;57.012;40.984;2023-01-25T05:57:16;101442.19;;;-2.17;78.63
59391;BME280;53405;57.012;40.984;2023-01-25T06:00:05;101438.13;;;-2.25;79.33
59391;BME280;53405;57.012;40.984;2023-01-25T06:03:00;101447.63;;;-2.03;79.19
59391;BME280;53405;57.012;40.984;2023-01-25T06:05:54;101435.56;;;-2.03;79.05
59391;BME280;53405;57.012;40.984;2023-01-25T06:08:43;101438.63;;;-2.15;78.36
59391;BME280;53405;57.012;40.984;2023-01-25T06:11:31;101417.13;;;-2.15;78.56
59391;BME280;53405;57.012;40.984;2023-01-25T06:14:18;101430.41;;;-2.25;79.43
59391;BME280;53405;57.012;40.984;2023-01-25T06:17:06;101424.34;;;-2.24;79.40
59391;BME280;53405;57.012;40.984;2023-01-25T06:20:26;101428.88;;;-2.30;78.81
59391;BME280;53405;57.012;40.984;2023-01-25T06:23:39;101434.22;;;-2.35;79.33
59391;BME280;53405;57.012;40.984;2023-01-25T06:26:29;101422.28;;;-1.93;79.57
59391;BME280;53405;57.012;40.984;2023-01-25T06:29:26;101405.78;;;-1.91;78.16
59391;BME280;53405;57.012;40.984;2023-01-25T06:32:13;101416.97;;;-1.90;78.41
59391;BME280;53405;57.012;40.984;2023-01-25T06:35:02;101402.34;;;-2.12;78.27
59391;BME280;53405;57.012;40.984;2023-01-25T06:37:54;101413.78;;;-2.17;79.60
59391;BME280;53405;57.012;40.984;2023-01-25T06:40:44;101422.19;;;-2.12;79.58
59391;BME280;53405;57.012;40.984;2023-01-25T06:43:32;101391.81;;;-2.28;79.23
59391;BME280;53405;57.012;40.984;2023-01-25T06:46:21;101405.13;;;-2.16;79.31
59391;BME280;53405;57.012;40.984;2023-01-25T06:49:09;101414.19;;;-2.06;80.44
59391;BME280;53405;57.012;40.984;2023-01-25T06:51:57;101390.72;;;-2.22;79.29
59391;BME280;53405;57.012;40.984;2023-01-25T06:54:44;101409.28;;;-2.12;79.14
59391;BME280;53405;57.012;40.984;2023-01-25T06:57:33;101393.13;;;-2.17;78.89
59391;BME280;53405;57.012;40.984;2023-01-25T07:00:20;101387.53;;;-2.29;78.83
59391;BME280;53405;57.012;40.984;2023-01-25T07:03:10;101406.56;;;-2.09;79.70
59391;BME280;53405;57.012;40.984;2023-01-25T07:06:02;101400.09;;;-1.99;80.77
59391;BME280;53405;57.012;40.984;2023-01-25T07:08:50;101386.88;;;-1.91;79.93
59391;BME280;53405;57.012;40.984;2023-01-25T07:11:38;101387.72;;;-1.91;78.62
59391;BME280;53405;57.012;40.984;2023-01-25T07:14:26;101389.47;;;-1.91;80.23
59391;BME280;53405;57.012;40.984;2023-01-25T07:17:14;101385.38;;;-1.75;79.87
59391;BME280;53405;57.012;40.984;2023-01-25T07:20:03;101399.69;;;-1.68;78.80
59391;BME280;53405;57.012;40.984;2023-01-25T07:22:50;101397.72;;;-1.83;77.79
59391;BME280;53405;57.012;40.984;2023-01-25T07:25:43;101400.16;;;-2.01;80.16
59391;BME280;53405;57.012;40.984;2023-01-25T07:28:32;101393.69;;;-1.89;78.74
59391;BME280;53405;57.012;40.984;2023-01-25T07:31:20;101377.19;;;-1.86;78.48
59391;BME280;53405;57.012;40.984;2023-01-25T07:34:09;101397.59;;;-2.01;78.50
59391;BME280;53405;57.012;40.984;2023-01-25T07:36:58;101415.66;;;-2.01;79.74
59391;BME280;53405;57.012;40.984;2023-01-25T07:39:45;101405.81;;;-2.13;79.54
59391;BME280;53405;57.012;40.984;2023-01-25T07:42:38;101411.38;;;-2.22;79.79
59391;BME280;53405;57.012;40.984;2023-01-25T07:45:31;101403.81;;;-2.27;80.06
59391;BME280;53405;57.012;40.984;2023-01-25T07:48:19;101400.66;;;-2.13;81.72
59391;BME280;53405;57.012;40.984;2023-01-25T07:51:09;101398.59;;;-1.83;81.39
59391;BME280;53405;57.012;40.984;2023-01-25T07:54:13;101396.72;;;-1.79;79.82
59391;BME280;53405;57.012;40.984;2023-01-25T07:57:01;101410.25;;;-1.94;79.38
59391;BME280;53405;57.012;40.984;2023-01-25T07:59:49;101409.19;;;-1.89;79.53
59391;BME280;53405;57.012;40.984;2023-01-25T08:02:36;101409.13;;;-1.87;79.75
59391;BME280;53405;57.012;40.984;2023-01-25T08:05:24;101398.22;;;-1.53;80.49
59391;BME280;53405;57.012;40.984;2023-01-25T08:08:11;101405.34;;;-1.39;78.09
59391;BME280;53405;57.012;40.984;2023-01-25T08:11:00;101388.13;;;-1.59;78.34
59391;BME280;53405;57.012;40.984;2023-01-25T08:13:53;101400.19;;;-1.59;79.72
59391;BME280;53405;57.012;40.984;2023-01-25T08:16:47;101389.53;;;-1.72;78.59
59391;BME280;53405;57.012;40.984;2023-01-25T08:19:34;101379.94;;;-1.48;79.24
59391;BME280;53405;57.012;40.984;2023-01-25T08:22:22;101382.72;;;-1.53;79.76
59391;BME280;53405;57.012;40.984;2023-01-25T08:25:09;101384.88;;;-1.43;78.86
59391;BME280;53405;57.012;40.984;2023-01-25T08:27:58;101376.63;;;-1.52;77.92
59391;BME280;53405;57.012;40.984;2023-01-25T08:30:46;101380.19;;;-1.54;78.55
59391;BME280;53405;57.012;40.984;2023-01-25T08:33:43;101371.97;;;-1.64;78.57
59391;BME280;53405;57.012;40.984;2023-01-25T08:36:32;101374.34;;;-1.59;79.49
59391;BME280;53405;57.012;40.984;2023-01-25T08:39:20;101377.41;;;-1.50;77.87
59391;BME280;53405;57.012;40.984;2023-01-25T08:42:08;101374.03;;;-1.52;79.29
59391;BME280;53405;57.012;40.984;2023-01-25T08:44:55;101374.22;;;-1.56;78.32
59391;BME280;53405;57.012;40.984;2023-01-25T08:47:43;101369.59;;;-1.69;78.62
59391;BME280;53405;57.012;40.984;2023-01-25T08:50:30;101369.31;;;-1.83;79.22
59391;BME280;53405;57.012;40.984;2023-01-25T08:53:18;101364.22;;;-1.85;79.30
59391;BME280;53405;57.012;40.984;2023-01-25T08:56:10;101319.81;;;-1.93;79.16
59391;BME280;53405;57.012;40.984;2023-01-25T08:58:58;101334.97;;;-1.25;77.51
59391;BME280;53405;57.012;40.984;2023-01-25T09:01:45;101362.69;;;-1.29;77.14
59391;BME280;53405;57.012;40.984;2023-01-25T09:04:34;101356.22;;;-1.58;77.78
59391;BME280;53405;57.012;40.984;2023-01-25T09:07:21;101355.44;;;-1.80;78.83
59391;BME280;53405;57.012;40.984;2023-01-25T09:10:09;101351.31;;;-2.05;79.66
59391;BME280;53405;57.012;40.984;2023-01-25T09:12:59;101342.22;;;-1.93;79.42
59391;BME280;53405;57.012;40.984;2023-01-25T09:15:46;101348.97;;;-1.91;79.11
59391;BME280;53405;57.012;40.984;2023-01-25T09:18:39;101326.72;;;-1.93;80.44
59391;BME280;53405;57.012;40.984;2023-01-25T09:21:28;101323.81;;;-1.86;79.63
59391;BME280;53405;57.012;40.984;2023-01-25T09:24:16;101282.06;;;-1.95;79.92
59391;BME280;53405;57.012;40.984;2023-01-25T09:27:03;101300.25;;;-1.78;80.30
59391;BME280;53405;57.012;40.984;2023-01-25T09:29:51;101314.50;;;-1.69;79.01
59391;BME280;53405;57.012;40.984;2023-01-25T09:32:48;101292.41;;;-1.56;78.38
59391;BME280;53405;57.012;40.984;2023-01-25T09:35:37;101284.94;;;-1.43;78.79
59391;BME280;53405;57.012;40.984;2023-01-25T09:38:25;101274.75;;;-1.27;78.61
59391;BME280;53405;57.012;40.984;2023-01-25T09:47:16;101256.91;;;-1.71;78.75
59391;BME280;53405;57.012;40.984;2023-01-25T09:53:48;101265.22;;;-1.27;78.41
59391;BME280;53405;57.012;40.984;2023-01-25T09:56:32;101248.41;;;-1.35;77.84
59391;BME280;53405;57.012;40.984;2023-01-25T09:59:24;101247.28;;;-1.68;78.19
59391;BME280;53405;57.012;40.984;2023-01-25T10:02:33;101250.97;;;-1.73;77.98
59391;BME280;53405;57.012;40.984;2023-01-25T10:05:28;101262.41;;;-1.79;79.15
59391;BME280;53405;57.012;40.984;2023-01-25T10:08:30;101247.19;;;-1.85;78.60
59391;BME280;53405;57.012;40.984;2023-01-25T10:11:30;101247.75;;;-1.78;78.95
59391;BME280;53405;57.012;40.984;2023-01-25T10:14:19;101228.47;;;-1.90;79.72
59391;BME280;53405;57.012;40.984;2023-01-25T10:17:13;101233.31;;;-1.83;79.91
59391;BME280;53405;57.012;40.984;2023-01-25T10:24:05;101251.06;;;-1.75;77.96
59391;BME280;53405;57.012;40.984;2023-01-25T10:27:02;101223.16;;;-2.06;79.05
59391;BME280;53405;57.012;40.984;2023-01-25T10:29:56;101242.78;;;-1.83;78.69
59391;BME280;53405;57.012;40.984;2023-01-25T10:32:45;101231.38;;;-1.98;79.29
59391;BME280;53405;57.012;40.984;2023-01-25T10:35:46;101218.78;;;-1.85;78.51
59391;BME280;53405;57.012;40.984;2023-01-25T10:38:45;101223.41;;;-1.73;78.76
59391;BME280;53405;57.012;40.984;2023-01-25T10:41:43;101197.97;;;-1.82;79.25
59391;BME280;53405;57.012;40.984;2023-01-25T10:44:36;101222.50;;;-1.53;78.58
59391;BME280;53405;57.012;40.984;2023-01-25T10:47:29;101227.34;;;-1.45;77.93
59391;BME280;53405;57.012;40.984;2023-01-25T10:50:51;101214.38;;;-1.64;78.05
59391;BME280;53405;57.012;40.984;2023-01-25T10:53:39;101215.66;;;-1.54;79.25
59391;BME280;53405;57.012;40.984;2023-01-25T10:56:29;101219.91;;;-1.72;77.77
59391;BME280;53405;57.012;40.984;2023-01-25T10:59:24;101220.66;;;-1.89;78.61
59391;BME280;53405;57.012;40.984;2023-01-25T11:14:16;101160.13;;;-2.42;80.00
59391;BME280;53405;57.012;40.984;2023-01-25T11:17:04;101165.72;;;-2.32;79.58
59391;BME280;53405;57.012;40.984;2023-01-25T11:20:18;101168.09;;;-2.27;80.03
59391;BME280;53405;57.012;40.984;2023-01-25T11:23:21;101169.50;;;-2.00;80.05
59391;BME280;53405;57.012;40.984;2023-01-25T11:26:15;101165.56;;;-1.89;79.36
59391;BME280;53405;57.012;40.984;2023-01-25T11:29:12;101147.41;;;-2.26;79.10
59391;BME280;53405;57.012;40.984;2023-01-25T11:31:59;101166.44;;;-2.28;79.61
59391;BME280;53405;57.012;40.984;2023-01-25T11:34:50;101136.81;;;-2.20;80.59
59391;BME280;53405;57.012;40.984;2023-01-25T11:37:42;101153.91;;;-2.17;80.11
59391;BME280;53405;57.012;40.984;2023-01-25T11:50:34;101129.50;;;-2.10;80.42
59391;BME280;53405;57.012;40.984;2023-01-25T12:11:55;101119.53;;;-2.17;80.00
59391;BME280;53405;57.012;40.984;2023-01-25T12:21:55;101123.28;;;-1.87;79.87
59391;BME280;53405;57.012;40.984;2023-01-25T12:25:12;101121.53;;;-2.05;80.30
59391;BME280;53405;57.012;40.984;2023-01-25T12:28:18;101115.88;;;-1.75;79.30
59391;BME280;53405;57.012;40.984;2023-01-25T12:34:03;101123.72;;;-1.96;79.04
59391;BME280;53405;57.012;40.984;2023-01-25T12:36:59;101103.03;;;-2.34;79.78
59391;BME280;53405;57.012;40.984;2023-01-25T12:40:12;101112.28;;;-2.09;79.66
59391;BME280;53405;57.012;40.984;2023-01-25T12:43:02;101079.91;;;-2.56;80.67
59391;BME280;53405;57.012;40.984;2023-01-25T12:45:52;101118.03;;;-2.23;81.39
59391;BME280;53405;57.012;40.984;2023-01-25T12:48:42;101113.22;;;-2.31;80.84
59391;BME280;53405;57.012;40.984;2023-01-25T12:51:37;101109.66;;;-2.47;80.89
59391;BME280;53405;57.012;40.984;2023-01-25T12:54:33;101112.84;;;-2.42;81.11
59391;BME280;53405;57.012;40.984;2023-01-25T12:57:32;101106.75;;;-2.40;81.61
59391;BME280;53405;57.012;40.984;2023-01-25T13:04:00;101093.25;;;-2.27;81.16
59391;BME280;53405;57.012;40.984;2023-01-25T13:09:58;101087.53;;;-2.53;82.28
59391;BME280;53405;57.012;40.984;2023-01-25T13:12:59;101074.34;;;-2.47;82.68
59391;BME280;53405;57.012;40.984;2023-01-25T13:15:50;101077.28;;;-2.36;82.20
59391;BME280;53405;57.012;40.984;2023-01-25T13:18:39;101061.72;;;-2.53;81.76
59391;BME280;53405;57.012;40.984;2023-01-25T13:24:32;101055.59;;;-2.50;82.77
59391;BME280;53405;57.012;40.984;2023-01-25T13:27:24;101046.59;;;-2.42;82.16
59391;BME280;53405;57.012;40.984;2023-01-25T13:30:32;101041.09;;;-2.34;82.26
59391;BME280;53405;57.012;40.984;2023-01-25T13:33:39;100965.84;;;-2.82;82.17
59391;BME280;53405;57.012;40.984;2023-01-25T13:36:52;101027.38;;;-2.34;82.80
59391;BME280;53405;57.012;40.984;2023-01-25T13:39:42;101019.22;;;-2.44;82.12
59391;BME280;53405;57.012;40.984;2023-01-25T13:42:34;101030.34;;;-2.06;81.23
59391;BME280;53405;57.012;40.984;2023-01-25T13:45:23;101029.53;;;-2.25;82.49
59391;BME280;53405;57.012;40.984;2023-01-25T13:48:17;101016.50;;;-2.22;81.57
59391;BME280;53405;57.012;40.984;2023-01-25T13:51:09;100989.16;;;-2.45;82.17
59391;BME280;53405;57.012;40.984;2023-01-25T13:54:01;101000.91;;;-2.02;81.62
59391;BME280;53405;57.012;40.984;2023-01-25T13:57:02;100962.09;;;-2.17;80.43
59391;BME280;53405;57.012;40.984;2023-01-25T14:00:00;101003.06;;;-1.92;80.84
59391;BME280;53405;57.012;40.984;2023-01-25T14:02:56;100975.41;;;-2.27;81.31
59391;BME280;53405;57.012;40.984;2023-01-25T14:05:49;100998.41;;;-2.03;82.91
59391;BME280;53405;57.012;40.984;2023-01-25T14:08:37;100982.94;;;-2.22;81.84
59391;BME280;53405;57.012;40.984;2023-01-25T14:11:30;100982.81;;;-2.19;81.22
59391;BME280;53405;57.012;40.984;2023-01-25T14:19:55;100982.41;;;-2.11;82.09
59391;BME280;53405;57.012;40.984;2023-01-25T14:22:49;100967.81;;;-2.30;82.13
59391;BME280;53405;57.012;40.984;2023-01-25T14:25:39;100969.06;;;-2.39;82.68
59391;BME280;53405;57.012;40.984;2023-01-25T14:28:32;100958.09;;;-2.25;81.85
59391;BME280;53405;57.012;40.984;2023-01-25T14:31:23;100975.31;;;-2.06;82.72
59391;BME280;53405;57.012;40.984;2023-01-25T14:34:18;100966.22;;;-1.96;82.24
59391;BME280;53405;57.012;40.984;2023-01-25T14:37:15;100956.25;;;-2.04;81.58
59391;BME280;53405;57.012;40.984;2023-01-25T14:40:09;100965.53;;;-2.00;81.70
59391;BME280;53405;57.012;40.984;2023-01-25T14:42:58;100965.13;;;-2.09;81.92
59391;BME280;53405;57.012;40.984;2023-01-25T14:45:46;100962.97;;;-2.19;81.90
59391;BME280;53405;57.012;40.984;2023-01-25T14:48:35;100952.38;;;-2.12;82.73
59391;BME280;53405;57.012;40.984;2023-01-25T14:51:27;100944.50;;;-2.09;81.93
59391;BME280;53405;57.012;40.984;2023-01-25T14:54:21;100949.50;;;-2.06;81.93
59391;BME280;53405;57.012;40.984;2023-01-25T14:57:37;100938.81;;;-1.98;82.01
59391;BME280;53405;57.012;40.984;2023-01-25T15:00:27;100921.25;;;-2.09;82.29
59391;BME280;53405;57.012;40.984;2023-01-25T15:03:18;100937.13;;;-2.00;82.39
59391;BME280;53405;57.012;40.984;2023-01-25T15:06:07;100931.06;;;-1.98;82.95
59391;BME280;53405;57.012;40.984;2023-01-25T15:08:59;100920.59;;;-1.95;82.06
59391;BME280;53405;57.012;40.984;2023-01-25T15:11:58;100922.56;;;-1.83;81.64
59391;BME280;53405;57.012;40.984;2023-01-25T15:14:51;100918.53;;;-1.71;80.92
59391;BME280;53405;57.012;40.984;2023-01-25T15:17:47;100927.41;;;-1.77;81.39
59391;BME280;53405;57.012;40.984;2023-01-25T15:20:40;100913.22;;;-1.68;81.09
59391;BME280;53405;57.012;40.984;2023-01-25T15:23:28;100900.38;;;-1.70;80.73
59391;BME280;53405;57.012;40.984;2023-01-25T15:26:26;100912.00;;;-1.78;81.02
59391;BME280;53405;57.012;40.984;2023-01-25T15:29:23;100910.66;;;-1.86;81.05
59391;BME280;53405;57.012;40.984;2023-01-25T15:32:18;100908.97;;;-1.87;81.48
59391;BME280;53405;57.012;40.984;2023-01-25T15:35:12;100899.00;;;-1.94;81.67
59391;BME280;53405;57.012;40.984;2023-01-25T15:38:00;100892.19;;;-1.95;81.63
59391;BME280;53405;57.012;40.984;2023-01-25T15:40:48;100893.75;;;-1.75;82.02
59391;BME280;53405;57.012;40.984;2023-01-25T15:43:35;100866.44;;;-1.79;82.39
59391;BME280;53405;57.012;40.984;2023-01-25T15:46:28;100898.63;;;-1.69;81.14
59391;BME280;53405;57.012;40.984;2023-01-25T15:49:24;100882.16;;;-1.67;81.15
59391;BME280;53405;57.012;40.984;2023-01-25T15:52:16;100883.06;;;-1.68;81.04
59391;BME280;53405;57.012;40.984;2023-01-25T15:55:04;100883.44;;;-1.75;81.73
59391;BME280;53405;57.012;40.984;2023-01-25T15:57:52;100886.84;;;-1.57;81.61
59391;BME280;53405;57.012;40.984;2023-01-25T16:00:39;100862.69;;;-1.56;80.40
59391;BME280;53405;57.012;40.984;2023-01-25T16:03:28;100871.16;;;-1.37;81.41
59391;BME280;53405;57.012;40.984;2023-01-25T16:09:24;100879.56;;;-1.67;80.50
59391;BME280;53405;57.012;40.984;2023-01-25T16:12:16;100871.97;;;-1.70;81.58
59391;BME280;53405;57.012;40.984;2023-01-25T16:15:04;100843.59;;;-1.87;80.94
59391;BME280;53405;57.012;40.984;2023-01-25T16:17:52;100850.06;;;-1.63;82.18
59391;BME280;53405;57.012;40.984;2023-01-25T16:20:40;100842.41;;;-1.47;82.79
59391;BME280;53405;57.012;40.984;2023-01-25T16:23:29;100834.34;;;-1.58;80.33